Time;durP1;ratioP1;P1;durP2;ratioP2;P2;SDS_P1;SDS_P2;PMS_P1;PMS_P2;Temp;Humidity;BMP_temperature;BMP_pressure;BME280_temperature;BME280_humidity;BME280_pressure;Samples;Min_cycle;Max_cycle;Signal;HPM_P1;HPM_P2
2021/10/18 00:02:09;;;;;;;20.98;16.23;;;10.70;78.70;;;;;;5075551;28;20025;-84
2021/10/18 00:04:35;;;;;;;22.92;16.48;;;10.70;78.80;;;;;;5076753;28;20023;-84
2021/10/18 00:07:01;;;;;;;23.25;16.48;;;10.70;78.80;;;;;;5077031;28;20475;-83
2021/10/18 00:09:26;;;;;;;25.98;18.55;;;10.60;78.60;;;;;;5076584;28;20047;-83
2021/10/18 00:11:52;;;;;;;21.10;15.88;;;10.60;78.70;;;;;;5085567;28;20077;-83
2021/10/18 00:14:18;;;;;;;23.33;17.05;;;10.60;78.60;;;;;;5094452;28;20107;-83
2021/10/18 00:16:44;;;;;;;21.88;16.63;;;10.50;78.60;;;;;;5077029;28;20021;-83
2021/10/18 00:19:10;;;;;;;25.60;17.80;;;10.50;78.70;;;;;;5075181;28;20502;-83
2021/10/18 00:21:36;;;;;;;23.10;17.40;;;10.50;79.40;;;;;;5076879;28;20095;-83
2021/10/18 00:24:02;;;;;;;26.23;18.60;;;10.40;78.60;;;;;;5078862;28;20044;-83
2021/10/18 00:26:28;;;;;;;25.35;18.20;;;10.40;78.70;;;;;;5086529;28;20044;-83
2021/10/18 00:28:54;;;;;;;24.60;18.55;;;10.40;78.70;;;;;;5076374;28;20047;-82
2021/10/18 00:31:20;;;;;;;24.92;19.52;;;10.40;78.80;;;;;;5076883;28;20036;-82
2021/10/18 00:33:46;;;;;;;25.65;18.67;;;10.40;79.20;;;;;;5091331;28;20036;-82
2021/10/18 00:36:12;;;;;;;24.15;17.58;;;10.30;79.10;;;;;;5076543;28;20052;-82
2021/10/18 00:38:37;;;;;;;23.73;16.77;;;10.30;79.10;;;;;;5089798;28;20149;-83
2021/10/18 00:41:03;;;;;;;21.73;16.27;;;10.30;79.20;;;;;;5080211;28;20025;-82
2021/10/18 00:43:30;;;;;;;21.40;16.10;;;10.30;78.90;;;;;;5094042;28;20035;-82
2021/10/18 00:45:56;;;;;;;23.13;15.20;;;10.20;78.60;;;;;;5090417;28;20017;-82
2021/10/18 00:48:22;;;;;;;23.52;16.33;;;10.20;78.60;;;;;;5081051;28;20111;-81
2021/10/18 00:50:51;;;;;;;20.02;15.40;;;10.20;78.70;;;;;;5083356;28;20476;-83
2021/10/18 00:53:18;;;;;;;23.48;15.65;;;10.20;78.80;;;;;;5079943;28;20082;-82
2021/10/18 00:55:44;;;;;;;22.30;15.52;;;10.20;78.90;;;;;;5079935;28;20017;-82
2021/10/18 00:58:10;;;;;;;22.65;15.32;;;10.10;79.00;;;;;;5079443;28;20032;-82
2021/10/18 01:00:36;;;;;;;21.70;16.05;;;10.10;79.10;;;;;;5078595;28;20065;-82
2021/10/18 01:03:03;;;;;;;21.60;14.82;;;10.10;79.10;;;;;;5078263;28;20021;-81
2021/10/18 01:05:29;;;;;;;21.70;15.45;;;10.10;79.70;;;;;;5079786;28;20027;-82
2021/10/18 01:07:55;;;;;;;21.42;15.65;;;10.10;79.20;;;;;;5079712;28;20017;-82
2021/10/18 01:10:21;;;;;;;19.80;14.63;;;10.00;79.20;;;;;;5079570;28;20021;-83
2021/10/18 01:12:47;;;;;;;20.40;13.95;;;10.00;79.00;;;;;;5091865;28;20489;-82
2021/10/18 01:15:13;;;;;;;17.88;14.07;;;10.00;79.00;;;;;;5090521;28;20012;-82
2021/10/18 01:17:39;;;;;;;19.33;14.52;;;10.00;79.10;;;;;;5082002;28;20364;-82
2021/10/18 01:20:10;;;;;;;20.52;14.15;;;9.90;79.00;;;;;;5090620;28;20094;-82
2021/10/18 01:22:36;;;;;;;18.27;14.32;;;9.90;78.90;;;;;;5080947;28;20532;-82
2021/10/18 01:25:02;;;;;;;19.27;14.48;;;9.90;79.00;;;;;;5079472;28;20023;-83
2021/10/18 01:27:28;;;;;;;19.23;13.90;;;9.90;79.20;;;;;;5084156;28;20024;-82
2021/10/18 01:29:53;;;;;;;18.70;15.25;;;9.90;79.40;;;;;;5087735;28;20016;-82
2021/10/18 01:32:20;;;;;;;18.85;14.68;;;9.90;79.60;;;;;;5083325;28;20020;-82
2021/10/18 01:34:45;;;;;;;18.67;14.30;;;9.90;79.70;;;;;;5085811;28;20088;-82
2021/10/18 01:37:11;;;;;;;19.38;13.68;;;9.90;79.50;;;;;;5078884;28;20507;-82
2021/10/18 01:39:38;;;;;;;20.63;14.88;;;9.90;79.50;;;;;;5078992;28;20028;-82
2021/10/18 01:42:03;;;;;;;18.67;14.15;;;9.90;79.50;;;;;;5080962;28;20021;-82
2021/10/18 01:44:29;;;;;;;21.27;15.00;;;9.90;79.70;;;;;;5099393;28;20019;-82
2021/10/18 01:46:55;;;;;;;19.00;14.35;;;9.80;79.50;;;;;;5079946;28;20025;-82
2021/10/18 01:49:21;;;;;;;16.88;13.35;;;9.80;79.60;;;;;;5079182;28;20024;-82
2021/10/18 01:51:47;;;;;;;19.23;13.68;;;9.80;79.70;;;;;;5080320;28;20029;-81
2021/10/18 01:54:13;;;;;;;20.02;14.77;;;9.80;79.60;;;;;;5078786;28;20479;-84
2021/10/18 01:56:39;;;;;;;19.13;14.77;;;9.80;79.50;;;;;;5078428;28;20052;-82
2021/10/18 01:59:05;;;;;;;20.50;15.57;;;9.80;79.30;;;;;;5078810;28;20025;-84
2021/10/18 02:01:31;;;;;;;18.70;15.40;;;9.80;80.00;;;;;;5078462;28;20029;-83
2021/10/18 02:03:56;;;;;;;20.02;14.93;;;9.80;79.90;;;;;;5078607;28;20023;-84
2021/10/18 02:06:22;;;;;;;20.45;14.48;;;9.80;79.90;;;;;;5078359;28;20021;-83
2021/10/18 02:08:48;;;;;;;20.73;15.13;;;9.80;79.90;;;;;;5078590;28;20497;-83
2021/10/18 02:11:14;;;;;;;18.38;14.77;;;9.80;79.80;;;;;;5082595;28;20154;-84
2021/10/18 02:13:40;;;;;;;18.67;14.13;;;9.80;80.00;;;;;;5098415;28;20478;-83
2021/10/18 02:16:06;;;;;;;17.75;14.10;;;9.80;80.00;;;;;;5078960;28;20067;-83
2021/10/18 02:18:32;;;;;;;19.48;14.43;;;9.80;79.90;;;;;;5078448;28;20495;-83
2021/10/18 02:21:01;;;;;;;19.73;14.65;;;9.80;79.90;;;;;;5078074;28;20024;-83
2021/10/18 02:23:30;;;;;;;18.25;14.10;;;9.80;79.90;;;;;;5077200;28;20020;-83
2021/10/18 02:25:57;;;;;;;20.40;14.35;;;9.80;80.00;;;;;;5076659;28;20398;-83
2021/10/18 02:28:23;;;;;;;20.67;14.63;;;9.80;80.40;;;;;;5090824;28;20394;-83
2021/10/18 02:30:50;;;;;;;19.40;14.50;;;9.70;80.20;;;;;;5078433;28;20017;-83
2021/10/18 02:33:17;;;;;;;20.33;14.75;;;9.70;80.30;;;;;;5078615;28;20031;-82
2021/10/18 02:35:43;;;;;;;19.92;13.93;;;9.70;80.40;;;;;;5077777;28;20025;-83
2021/10/18 02:38:09;;;;;;;20.08;14.40;;;9.70;80.30;;;;;;5078075;28;20036;-83
2021/10/18 02:40:35;;;;;;;17.77;13.82;;;9.70;80.30;;;;;;5077715;28;20047;-83
2021/10/18 02:43:01;;;;;;;16.45;13.25;;;9.70;80.20;;;;;;5087967;28;20382;-85
2021/10/18 02:45:27;;;;;;;17.88;13.82;;;9.70;80.10;;;;;;5077813;28;20016;-85
2021/10/18 02:47:52;;;;;;;17.67;13.10;;;9.70;80.10;;;;;;5076318;28;20069;-85
2021/10/18 02:50:18;;;;;;;18.67;14.20;;;9.70;80.00;;;;;;5080671;28;20442;-85
2021/10/18 02:52:44;;;;;;;21.30;14.30;;;9.70;80.10;;;;;;5077775;28;20025;-85
2021/10/18 02:55:10;;;;;;;18.58;13.23;;;9.70;80.20;;;;;;5077437;28;20021;-85
2021/10/18 02:57:36;;;;;;;20.02;14.23;;;9.60;80.20;;;;;;5077541;28;20024;-84
2021/10/18 03:00:03;;;;;;;18.60;13.60;;;9.60;80.30;;;;;;5077472;28;20494;-84
2021/10/18 03:02:29;;;;;;;17.55;14.02;;;9.60;80.10;;;;;;5089215;28;20050;-84
2021/10/18 03:04:55;;;;;;;21.00;16.00;;;9.60;80.40;;;;;;5078721;28;20487;-84
2021/10/18 03:07:22;;;;;;;21.42;14.43;;;9.60;80.70;;;;;;5077549;28;20489;-85
2021/10/18 03:09:48;;;;;;;21.30;14.75;;;9.60;80.80;;;;;;5077268;28;20406;-85
2021/10/18 03:12:14;;;;;;;23.25;15.48;;;9.60;81.00;;;;;;5089177;28;20034;-85
2021/10/18 03:14:39;;;;;;;20.42;15.35;;;9.60;82.00;;;;;;5097494;28;20099;-85
2021/10/18 03:17:05;;;;;;;20.55;14.02;;;9.60;81.60;;;;;;5085152;28;20017;-85
2021/10/18 03:19:31;;;;;;;22.20;14.48;;;9.60;81.10;;;;;;5075772;28;20028;-85
2021/10/18 03:21:57;;;;;;;21.33;15.45;;;9.70;81.00;;;;;;5077331;28;20013;-85
2021/10/18 03:24:23;;;;;;;24.13;16.98;;;9.60;81.70;;;;;;5077098;28;20024;-85
2021/10/18 03:26:49;;;;;;;23.15;16.08;;;9.70;82.10;;;;;;5088430;28;20028;-85
2021/10/18 03:29:15;;;;;;;21.55;16.48;;;9.70;82.70;;;;;;5077808;28;20085;-84
2021/10/18 03:31:40;;;;;;;20.88;14.88;;;9.60;82.10;;;;;;5076344;28;20482;-85
2021/10/18 03:34:06;;;;;;;21.75;15.88;;;9.60;81.80;;;;;;5083909;28;20035;-85
2021/10/18 03:36:32;;;;;;;20.80;15.63;;;9.60;82.10;;;;;;5084424;28;20045;-85
2021/10/18 03:38:58;;;;;;;22.10;16.27;;;9.60;82.50;;;;;;5077012;28;20075;-85
2021/10/18 03:41:24;;;;;;;22.13;15.80;;;9.60;82.20;;;;;;5088808;28;20024;-85
2021/10/18 03:43:50;;;;;;;23.05;14.52;;;9.70;81.90;;;;;;5094238;28;20030;-85
2021/10/18 03:46:15;;;;;;;20.58;15.52;;;9.60;81.50;;;;;;5084057;28;20392;-85
2021/10/18 03:48:41;;;;;;;21.15;15.57;;;9.60;81.50;;;;;;5077276;28;20020;-85
2021/10/18 03:51:07;;;;;;;21.27;16.05;;;9.70;81.50;;;;;;5080183;28;20025;-84
2021/10/18 03:53:33;;;;;;;24.20;17.35;;;9.70;81.30;;;;;;5076836;28;20025;-83
2021/10/18 03:55:59;;;;;;;25.25;18.30;;;9.70;81.90;;;;;;5075742;28;20052;-83
2021/10/18 03:58:25;;;;;;;24.58;16.52;;;9.70;82.40;;;;;;5076455;28;20056;-84
2021/10/18 04:00:51;;;;;;;28.02;19.00;;;9.80;82.50;;;;;;5077140;28;20016;-83
2021/10/18 04:03:16;;;;;;;28.50;17.67;;;9.80;83.30;;;;;;5076828;28;20051;-83
2021/10/18 04:05:42;;;;;;;25.20;19.58;;;9.80;83.40;;;;;;5077012;28;20044;-83
2021/10/18 04:08:08;;;;;;;23.30;17.15;;;9.80;83.90;;;;;;5076808;28;20032;-85
2021/10/18 04:10:34;;;;;;;27.30;18.48;;;9.80;83.50;;;;;;5076943;28;20056;-85
2021/10/18 04:13:01;;;;;;;23.75;17.95;;;9.80;84.00;;;;;;5094833;28;20020;-85
2021/10/18 04:15:27;;;;;;;23.00;16.52;;;9.80;83.60;;;;;;5085591;28;20108;-86
2021/10/18 04:17:53;;;;;;;22.40;16.83;;;9.80;83.60;;;;;;5079114;28;20049;-86
2021/10/18 04:20:19;;;;;;;23.77;16.40;;;9.80;83.30;;;;;;5093726;28;20032;-86
2021/10/18 04:22:46;;;;;;;24.00;17.35;;;9.80;83.90;;;;;;5080648;28;20104;-86
2021/10/18 04:25:14;;;;;;;25.58;17.33;;;9.80;83.80;;;;;;5080352;28;20505;-85
2021/10/18 04:27:40;;;;;;;21.98;17.45;;;9.80;84.10;;;;;;5087432;28;20028;-86
2021/10/18 04:30:06;;;;;;;22.88;16.17;;;9.70;83.80;;;;;;5086693;28;20017;-85
2021/10/18 04:32:32;;;;;;;24.08;16.90;;;9.80;83.60;;;;;;5087884;28;20578;-85
2021/10/18 04:34:58;;;;;;;22.17;16.13;;;9.80;83.60;;;;;;5099519;28;20060;-85
2021/10/18 04:37:24;;;;;;;21.38;15.73;;;9.80;83.80;;;;;;5080183;28;20052;-86
2021/10/18 04:39:50;;;;;;;22.15;15.68;;;9.80;83.20;;;;;;5079900;28;20030;-85
2021/10/18 04:42:16;;;;;;;19.92;15.02;;;9.80;83.70;;;;;;5084064;28;20020;-85
2021/10/18 04:44:43;;;;;;;24.13;16.83;;;9.80;84.00;;;;;;5099217;28;20040;-85
2021/10/18 04:47:09;;;;;;;26.13;18.13;;;9.90;84.30;;;;;;5080310;28;20437;-84
2021/10/18 04:49:35;;;;;;;26.23;18.92;;;9.90;85.40;;;;;;5082040;28;20407;-84
2021/10/18 04:52:00;;;;;;;27.77;18.90;;;9.90;86.20;;;;;;5080715;28;20386;-84
2021/10/18 04:54:26;;;;;;;25.83;18.60;;;10.00;86.70;;;;;;5079967;28;20063;-84
2021/10/18 04:56:52;;;;;;;29.73;17.90;;;10.10;87.10;;;;;;5085299;28;20028;-84
2021/10/18 04:59:18;;;;;;;22.60;17.10;;;10.10;86.90;;;;;;5086181;28;20033;-84
2021/10/18 05:01:44;;;;;;;23.63;15.48;;;10.10;86.10;;;;;;5079611;28;20021;-86
2021/10/18 05:04:09;;;;;;;24.60;16.02;;;10.20;85.50;;;;;;5079981;28;20024;-85
2021/10/18 05:06:35;;;;;;;21.88;16.45;;;10.20;85.00;;;;;;5079799;28;20021;-83
2021/10/18 05:09:01;;;;;;;21.42;15.88;;;10.30;85.20;;;;;;5079637;28;20021;-77
2021/10/18 05:11:27;;;;;;;23.10;16.67;;;10.30;85.50;;;;;;5083449;28;20551;-83
2021/10/18 05:13:52;;;;;;;20.45;15.63;;;10.30;85.80;;;;;;5099898;28;20073;-84
2021/10/18 05:16:18;;;;;;;25.92;17.58;;;10.40;85.40;;;;;;5079753;28;20024;-81
2021/10/18 05:18:44;;;;;;;24.55;18.23;;;10.40;85.50;;;;;;5079642;28;20036;-80
2021/10/18 05:21:10;;;;;;;24.80;17.20;;;10.40;86.00;;;;;;5079376;28;20475;-82
2021/10/18 05:23:36;;;;;;;28.90;17.67;;;10.40;86.60;;;;;;5077787;28;20023;-80
2021/10/18 05:26:02;;;;;;;24.88;18.08;;;10.40;86.60;;;;;;5079295;28;20028;-79
2021/10/18 05:28:28;;;;;;;25.52;18.10;;;10.50;86.80;;;;;;5092623;28;20024;-81
2021/10/18 05:30:54;;;;;;;25.67;18.30;;;10.50;87.20;;;;;;5079510;28;20585;-81
2021/10/18 05:33:20;;;;;;;24.25;16.98;;;10.50;87.00;;;;;;5092767;28;20440;-79
2021/10/18 05:35:46;;;;;;;24.48;17.25;;;10.50;86.70;;;;;;5079217;28;20025;-81
2021/10/18 05:38:17;;;;;;;27.55;19.15;;;10.50;87.30;;;;;;5079050;28;20077;-82
2021/10/18 05:40:43;;;;;;;25.98;18.73;;;10.60;87.70;;;;;;5079176;28;20402;-81
2021/10/18 05:43:09;;;;;;;25.00;17.55;;;10.60;88.00;;;;;;5090291;28;20024;-76
2021/10/18 05:45:35;;;;;;;26.02;18.00;;;10.60;88.10;;;;;;5090675;28;20021;-86
2021/10/18 05:48:05;;;;;;;24.17;17.23;;;10.60;87.80;;;;;;5079022;28;20020;-84
2021/10/18 05:50:33;;;;;;;26.45;18.35;;;10.60;88.30;;;;;;5080774;28;20024;-88
2021/10/18 05:52:59;;;;;;;23.90;17.80;;;10.60;87.90;;;;;;5078815;28;20036;-86
2021/10/18 05:55:26;;;;;;;26.25;18.55;;;10.70;88.50;;;;;;5077479;28;20440;-78
2021/10/18 05:58:11;;;;;;;24.90;17.27;;;10.70;88.10;;;;;;5076953;28;20024;-78
2021/10/18 06:00:43;;;;;;;26.52;17.50;;;10.70;88.00;;;;;;5078738;28;20483;-80
2021/10/18 06:03:10;;;;;;;25.73;18.90;;;10.70;88.20;;;;;;5078591;28;20502;-82
2021/10/18 06:05:44;;;;;;;24.88;18.30;;;10.70;88.00;;;;;;5078756;28;20154;-81
2021/10/18 06:08:12;;;;;;;26.13;18.25;;;10.80;88.60;;;;;;5077990;28;20483;-79
2021/10/18 06:10:39;;;;;;;27.25;18.77;;;10.80;88.70;;;;;;5077141;28;20036;-80
2021/10/18 06:13:05;;;;;;;25.30;18.55;;;10.80;88.60;;;;;;5096759;28;20036;-80
2021/10/18 06:15:32;;;;;;;28.40;18.63;;;10.80;88.30;;;;;;5085471;28;20016;-81
2021/10/18 06:18:11;;;;;;;28.20;20.15;;;10.80;88.40;;;;;;5078107;28;20024;-78
2021/10/18 06:20:38;;;;;;;26.25;19.25;;;10.90;88.80;;;;;;5078111;28;20029;-77
2021/10/18 06:23:04;;;;;;;29.20;18.75;;;10.90;88.80;;;;;;5078913;28;20016;-77
2021/10/18 06:25:32;;;;;;;28.83;19.73;;;10.90;89.00;;;;;;5079379;28;20028;-81
2021/10/18 06:27:58;;;;;;;25.42;17.50;;;10.90;88.80;;;;;;5089444;28;20077;-81
2021/10/18 06:30:26;;;;;;;30.60;19.48;;;10.90;88.20;;;;;;5077480;28;20062;-81
2021/10/18 06:32:53;;;;;;;27.23;18.52;;;11.00;88.20;;;;;;5087473;28;20047;-81
2021/10/18 06:35:19;;;;;;;25.88;17.75;;;11.00;87.90;;;;;;5082223;28;20024;-81
2021/10/18 06:37:44;;;;;;;30.17;20.15;;;11.00;87.80;;;;;;5076699;28;20045;-82
2021/10/18 06:40:11;;;;;;;29.85;19.05;;;11.00;87.80;;;;;;5077361;28;20031;-82
2021/10/18 06:42:38;;;;;;;33.30;20.80;;;11.10;88.20;;;;;;5084558;28;20012;-81
2021/10/18 06:45:05;;;;;;;32.45;21.40;;;11.10;88.40;;;;;;5094975;28;20560;-82
2021/10/18 06:47:30;;;;;;;29.02;19.92;;;11.10;88.80;;;;;;5077886;28;20074;-79
2021/10/18 06:49:57;;;;;;;33.55;20.75;;;11.20;89.20;;;;;;5080646;28;20058;-79
2021/10/18 06:52:25;;;;;;;31.65;20.10;;;11.20;89.20;;;;;;5077752;28;20020;-80
2021/10/18 06:54:51;;;;;;;27.42;19.27;;;11.20;89.80;;;;;;5077177;28;20024;-78
2021/10/18 06:57:16;;;;;;;34.55;24.88;;;11.20;88.40;;;;;;5077470;28;20564;-76
2021/10/18 06:59:42;;;;;;;34.95;22.67;;;11.20;88.30;;;;;;5077425;28;20113;-77
2021/10/18 07:02:08;;;;;;;34.50;22.77;;;11.20;88.00;;;;;;5077944;28;20025;-77
2021/10/18 07:04:38;;;;;;;37.45;22.70;;;11.20;87.70;;;;;;5077251;28;20025;-77
2021/10/18 07:07:04;;;;;;;33.17;20.70;;;11.30;88.10;;;;;;5077694;28;20019;-77
2021/10/18 07:09:30;;;;;;;29.77;19.40;;;11.30;88.40;;;;;;5076635;28;20051;-77
2021/10/18 07:11:56;;;;;;;38.53;20.77;;;11.30;88.00;;;;;;5084913;28;20028;-77
2021/10/18 07:14:22;;;;;;;33.03;20.15;;;11.30;87.70;;;;;;5093745;28;20071;-77
2021/10/18 07:16:48;;;;;;;35.72;20.63;;;11.40;87.90;;;;;;5075883;28;20054;-78
2021/10/18 07:19:14;;;;;;;36.20;21.85;;;11.40;88.00;;;;;;5077120;28;20439;-77
2021/10/18 07:21:42;;;;;;;36.13;20.30;;;11.40;87.80;;;;;;5077395;28;20060;-77
2021/10/18 07:24:08;;;;;;;39.95;22.33;;;11.40;87.70;;;;;;5076712;28;20017;-77
2021/10/18 07:26:34;;;;;;;35.50;21.38;;;11.50;88.30;;;;;;5076783;28;20024;-77
2021/10/18 07:29:00;;;;;;;36.83;20.85;;;11.50;88.20;;;;;;5095376;28;20031;-77
2021/10/18 07:31:26;;;;;;;35.58;20.70;;;11.50;88.20;;;;;;5095985;28;20081;-78
2021/10/18 07:33:57;;;;;;;36.78;21.15;;;11.60;88.10;;;;;;5091715;28;20111;-79
2021/10/18 07:36:27;;;;;;;42.03;23.63;;;11.60;88.00;;;;;;5075406;28;20048;-78
2021/10/18 07:38:55;;;;;;;38.22;22.77;;;11.60;88.40;;;;;;5075901;28;20021;-78
2021/10/18 07:41:21;;;;;;;38.88;21.70;;;11.70;88.30;;;;;;5076370;28;20021;-78
2021/10/18 07:43:48;;;;;;;37.47;21.23;;;11.70;88.40;;;;;;5086238;28;20017;-78
2021/10/18 07:46:16;;;;;;;35.03;21.13;;;11.70;88.20;;;;;;5076638;28;20021;-78
2021/10/18 07:48:42;;;;;;;36.17;20.75;;;11.80;87.80;;;;;;5078469;28;20031;-78
2021/10/18 07:51:08;;;;;;;37.17;20.42;;;11.80;87.50;;;;;;5083075;28;20025;-78
2021/10/18 07:53:34;;;;;;;38.08;22.40;;;11.80;87.40;;;;;;5080755;28;20475;-78
2021/10/18 07:56:00;;;;;;;42.85;24.40;;;11.90;87.50;;;;;;5080845;28;20072;-78
2021/10/18 07:58:25;;;;;;;42.53;24.23;;;11.90;88.20;;;;;;5080390;28;20016;-77
2021/10/18 08:00:51;;;;;;;46.00;23.60;;;12.00;88.60;;;;;;5080974;28;20029;-77
2021/10/18 08:03:18;;;;;;;36.63;21.85;;;12.00;89.00;;;;;;5080544;28;20017;-78
2021/10/18 08:05:43;;;;;;;41.42;22.50;;;12.00;88.60;;;;;;5079364;28;20020;-78
2021/10/18 08:08:11;;;;;;;41.75;23.38;;;12.10;88.60;;;;;;5080514;28;20032;-78
2021/10/18 08:10:37;;;;;;;38.63;21.85;;;12.10;88.60;;;;;;5080534;28;20020;-78
2021/10/18 08:13:03;;;;;;;35.25;20.88;;;12.20;88.30;;;;;;5099005;28;20024;-78
2021/10/18 08:15:30;;;;;;;39.63;21.23;;;12.20;87.90;;;;;;5087884;28;20035;-79
2021/10/18 08:17:58;;;;;;;38.95;20.65;;;12.30;88.00;;;;;;5080140;28;20024;-78
2021/10/18 08:20:24;;;;;;;35.72;20.92;;;12.30;87.90;;;;;;5080508;28;20092;-78
2021/10/18 08:22:50;;;;;;;41.70;23.02;;;12.30;87.70;;;;;;5080702;28;20016;-78
2021/10/18 08:25:17;;;;;;;38.67;21.90;;;12.40;88.80;;;;;;5079792;28;20078;-78
2021/10/18 08:27:43;;;;;;;36.05;21.45;;;12.40;88.40;;;;;;5093365;28;20043;-78
2021/10/18 08:30:10;;;;;;;34.15;20.02;;;12.40;88.10;;;;;;5080097;28;20020;-78
2021/10/18 08:32:36;;;;;;;37.00;21.33;;;12.50;88.00;;;;;;5087872;28;20095;-78
2021/10/18 08:35:03;;;;;;;33.90;20.42;;;12.50;87.80;;;;;;5085119;28;20033;-78
2021/10/18 08:40:15;;;;;;;36.70;19.40;;;12.60;88.00;;;;;;5060256;28;20044;-78
2021/10/18 08:43:28;;;;;;;37.70;20.25;;;12.70;87.30;;;;;;5096506;28;20024;-78
2021/10/18 08:45:30;;;;;;;35.88;21.38;;;12.70;87.30;;;;;;5084561;28;20036;-78
2021/10/18 08:47:57;;;;;;;41.90;22.92;;;12.80;88.10;;;;;;5085712;28;20453;-78
2021/10/18 08:50:24;;;;;;;37.25;20.25;;;12.80;88.80;;;;;;5081585;28;20020;-77
2021/10/18 08:52:50;;;;;;;33.30;20.25;;;12.90;88.30;;;;;;5079686;28;20078;-77
2021/10/18 08:55:16;;;;;;;35.15;21.10;;;12.90;88.00;;;;;;5079850;28;20101;-78
2021/10/18 08:57:42;;;;;;;35.00;20.10;;;13.00;88.10;;;;;;5079692;28;20021;-78
2021/10/18 09:00:34;;;;;;;34.53;20.83;;;13.10;88.20;;;;;;5078228;28;20028;-78
2021/10/18 09:03:00;;;;;;;31.33;19.65;;;13.10;88.50;;;;;;5079756;28;20455;-78
2021/10/18 09:05:26;;;;;;;32.50;20.85;;;13.20;88.40;;;;;;5079755;28;20024;-78
2021/10/18 09:07:51;;;;;;;34.50;20.20;;;13.30;88.50;;;;;;5078253;28;20432;-77
2021/10/18 09:10:17;;;;;;;33.55;19.50;;;13.30;88.50;;;;;;5079340;28;20028;-78
2021/10/18 09:12:44;;;;;;;35.17;19.58;;;13.40;89.00;;;;;;5094025;28;20073;-77
2021/10/18 09:15:25;;;;;;;30.15;17.60;;;13.40;89.00;;;;;;5088409;28;20055;-77
2021/10/18 09:17:52;;;;;;;26.92;16.05;;;13.50;89.10;;;;;;5078024;28;20031;-78
2021/10/18 09:20:22;;;;;;;31.67;19.23;;;13.60;89.10;;;;;;5077994;28;20383;-78
2021/10/18 09:22:49;;;;;;;28.17;16.35;;;13.60;90.00;;;;;;5079217;28;20375;-78
2021/10/18 09:25:41;;;;;;;25.00;15.75;;;13.80;90.30;;;;;;5079111;28;20043;-78
2021/10/18 09:28:16;;;;;;;21.30;14.25;;;13.90;90.80;;;;;;5089523;28;20107;-77
2021/10/18 09:30:47;;;;;;;24.25;15.68;;;14.00;91.70;;;;;;5080642;28;20449;-77
2021/10/18 09:33:20;;;;;;;30.70;18.95;;;14.10;91.90;;;;;;5092311;28;20085;-77
2021/10/18 09:35:46;;;;;;;31.35;18.75;;;14.30;92.40;;;;;;5085866;28;20031;-77
2021/10/18 09:38:12;;;;;;;34.20;20.30;;;14.30;92.40;;;;;;5085194;28;20024;-77
2021/10/18 09:40:40;;;;;;;36.72;21.67;;;14.40;92.50;;;;;;5078939;28;20024;-78
2021/10/18 09:43:14;;;;;;;33.47;19.45;;;14.50;92.60;;;;;;5089687;28;20016;-77
2021/10/18 09:46:17;;;;;;;32.97;18.45;;;14.60;93.00;;;;;;5090543;28;20052;-77
2021/10/18 10:51:15;;;;;;;17.30;11.90;;;16.20;93.80;;;;;;5080634;28;20035;-78
2021/10/18 10:56:22;;;;;;;20.90;13.35;;;16.20;93.40;;;;;;5077799;28;20104;-77
2021/10/18 10:59:20;;;;;;;22.45;14.35;;;16.30;93.30;;;;;;5086361;28;20028;-77
2021/10/18 11:01:53;;;;;;;22.85;14.80;;;16.30;93.30;;;;;;5071085;28;20024;-78
2021/10/18 11:04:31;;;;;;;22.02;14.25;;;16.40;93.20;;;;;;5084115;28;20533;-78
2021/10/18 11:07:01;;;;;;;20.33;13.15;;;16.40;93.30;;;;;;5077568;28;20024;-77
2021/10/18 11:09:43;;;;;;;21.13;12.57;;;16.50;93.20;;;;;;5077231;28;20025;-77
2021/10/18 11:12:31;;;;;;;18.48;11.32;;;16.60;94.00;;;;;;5088383;28;20030;-75
2021/10/18 11:15:15;;;;;;;18.58;11.27;;;16.60;93.80;;;;;;5079003;28;20036;-76
2021/10/18 11:17:45;;;;;;;17.30;10.88;;;16.70;93.30;;;;;;5079939;28;20077;-75
2021/10/18 11:20:16;;;;;;;16.25;9.77;;;16.70;93.60;;;;;;5077446;28;20111;-75
2021/10/18 11:22:48;;;;;;;16.52;10.85;;;16.80;93.60;;;;;;5076998;28;20075;-75
2021/10/18 11:25:16;;;;;;;16.83;10.93;;;16.80;93.50;;;;;;5077180;28;20081;-75
2021/10/18 11:27:44;;;;;;;19.48;12.02;;;16.80;93.50;;;;;;5090425;28;20282;-75
2021/10/18 11:30:14;;;;;;;20.02;13.25;;;16.80;93.50;;;;;;5077071;28;20024;-73
2021/10/18 11:32:41;;;;;;;25.02;17.17;;;16.90;93.60;;;;;;5085756;28;20032;-74
2021/10/18 11:35:12;;;;;;;19.92;13.27;;;16.90;93.80;;;;;;5082903;28;20033;-77
2021/10/18 11:37:54;;;;;;;24.70;17.60;;;17.00;93.60;;;;;;5077232;28;20506;-77
2021/10/18 11:40:27;;;;;;;21.92;14.32;;;17.00;93.40;;;;;;5076759;28;20440;-77
2021/10/18 11:42:55;;;;;;;16.17;10.15;;;17.10;93.70;;;;;;5086157;28;20502;-78
2021/10/18 11:45:23;;;;;;;15.88;9.75;;;17.10;93.40;;;;;;5091289;28;20080;-78
2021/10/18 11:47:50;;;;;;;16.35;9.48;;;17.10;93.10;;;;;;5077236;28;20490;-78
2021/10/18 11:50:20;;;;;;;15.82;8.52;;;17.20;93.40;;;;;;5076109;28;20510;-78
2021/10/18 11:52:47;;;;;;;16.77;9.75;;;17.20;93.40;;;;;;5077328;28;20471;-77
2021/10/18 11:55:23;;;;;;;13.68;9.63;;;17.20;93.00;;;;;;5076656;28;20029;-77
2021/10/18 11:57:50;;;;;;;16.75;9.85;;;17.20;92.90;;;;;;5076737;28;20219;-78
2021/10/18 12:00:25;;;;;;;15.35;8.98;;;17.30;93.10;;;;;;5076592;28;20020;-77
2021/10/18 12:02:51;;;;;;;12.85;7.63;;;17.30;92.80;;;;;;5076550;28;20095;-77
2021/10/18 12:05:18;;;;;;;12.98;8.52;;;17.40;92.90;;;;;;5076610;28;20053;-77
2021/10/18 12:07:51;;;;;;;11.65;8.48;;;17.40;92.80;;;;;;5076784;28;20108;-77
2021/10/18 12:10:28;;;;;;;12.90;8.10;;;17.30;92.50;;;;;;5076254;28;20075;-77
2021/10/18 12:13:12;;;;;;;14.38;8.65;;;17.40;92.50;;;;;;5076207;28;20025;-77
2021/10/18 12:15:45;;;;;;;14.93;9.57;;;17.40;92.50;;;;;;5076895;28;20028;-76
2021/10/18 12:18:11;;;;;;;;;;;17.40;92.40;;;;;;5083860;28;20028;-77
2021/10/18 12:20:44;;;;;;;14.73;9.60;;;17.50;92.80;;;;;;5096360;28;19904;-76
2021/10/18 12:23:26;;;;;;;15.38;9.45;;;17.40;92.40;;;;;;5096631;28;20038;-77
2021/10/18 12:25:55;;;;;;;14.15;8.63;;;17.40;92.40;;;;;;5096560;28;20024;-77
2021/10/18 12:28:51;;;;;;;16.08;9.82;;;17.50;92.40;;;;;;5096656;28;20024;-77
2021/10/18 12:31:47;;;;;;;19.33;9.98;;;17.60;92.30;;;;;;5096850;28;20031;-77
2021/10/18 12:34:25;;;;;;;15.85;9.68;;;17.60;92.30;;;;;;5063919;28;20037;-76
2021/10/18 12:36:57;;;;;;;16.38;10.35;;;17.60;92.10;;;;;;5078457;28;20083;-77
2021/10/18 12:39:45;;;;;;;16.80;10.48;;;17.70;92.10;;;;;;5087452;28;20471;-77
2021/10/18 12:42:33;;;;;;;15.05;9.48;;;17.60;92.00;;;;;;5099897;28;20023;-77
2021/10/18 12:45:17;;;;;;;17.90;10.65;;;17.60;91.80;;;;;;5086383;28;20021;-77
2021/10/18 12:47:58;;;;;;;17.05;10.88;;;17.70;91.80;;;;;;5080218;28;20028;-77
2021/10/18 12:50:26;;;;;;;16.35;10.82;;;17.60;92.00;;;;;;5085319;28;20024;-76
2021/10/18 12:53:00;;;;;;;18.08;11.65;;;17.60;91.90;;;;;;5100409;28;20034;-77
2021/10/18 12:55:38;;;;;;;16.70;10.07;;;17.60;91.80;;;;;;5100143;28;20024;-76
2021/10/18 12:58:19;;;;;;;15.27;9.52;;;17.60;92.00;;;;;;5099797;28;20035;-75
2021/10/18 13:00:45;;;;;;;14.40;9.30;;;17.70;92.00;;;;;;5100419;28;20074;-75
2021/10/18 13:03:11;;;;;;;10.82;7.68;;;17.60;91.80;;;;;;5099685;28;20012;-75
2021/10/18 13:05:38;;;;;;;12.82;7.90;;;17.70;92.40;;;;;;5099773;28;20028;-75
2021/10/18 13:08:04;;;;;;;11.75;7.22;;;17.70;92.40;;;;;;5100177;28;20093;-76
2021/10/18 13:10:35;;;;;;;9.43;6.65;;;17.70;92.30;;;;;;5099705;28;20028;-76
2021/10/18 13:13:06;;;;;;;11.60;6.90;;;17.70;92.10;;;;;;5099594;28;20077;-76
2021/10/18 13:15:33;;;;;;;10.63;6.47;;;17.70;92.60;;;;;;5098632;28;20020;-76
2021/10/18 13:17:58;;;;;;;9.15;5.88;;;17.70;92.40;;;;;;5099682;28;20027;-75
2021/10/18 13:20:25;;;;;;;9.80;5.43;;;17.70;93.10;;;;;;5098526;28;20028;-75
2021/10/18 13:22:53;;;;;;;11.38;5.28;;;17.70;93.00;;;;;;5099617;28;20474;-75
2021/10/18 13:25:21;;;;;;;8.60;4.95;;;17.70;92.50;;;;;;5098206;28;20498;-75
2021/10/18 13:27:47;;;;;;;6.60;3.70;;;17.70;92.80;;;;;;5099794;28;20023;-75
2021/10/18 13:30:14;;;;;;;7.60;3.92;;;17.70;92.50;;;;;;5099637;28;20433;-75
2021/10/18 13:32:41;;;;;;;5.57;3.60;;;17.70;92.10;;;;;;5092299;28;20024;-75
2021/10/18 13:35:08;;;;;;;6.40;3.78;;;17.70;92.70;;;;;;5078077;28;20033;-76
2021/10/18 13:37:34;;;;;;;5.63;3.20;;;17.70;92.60;;;;;;5077723;28;20052;-77
2021/10/18 13:40:00;;;;;;;7.30;3.80;;;17.70;92.20;;;;;;5077650;28;20089;-73
2021/10/18 13:42:26;;;;;;;6.63;3.70;;;17.70;92.20;;;;;;5084176;28;20031;-75
2021/10/18 13:44:52;;;;;;;5.82;3.45;;;17.70;92.30;;;;;;5084692;28;20024;-75